UKDE/OZH METAR and TAF weather

Enter ICAO airport designator
Station Type Date Time Source
UKDE METAR 2020/01/28 21:00 UTC NOAA

UKDE 282100Z 07003MPS 1700 -RA BR OVC016 04/03 Q1008 R02R/290550 NOSIG


Station Type Date Time Source
UKDE Decoded METAR 2020/01/28 21:00 UTC NOAA

Zaporizhzhia / Mokraya, Ukraine (UKDE) 47-52-02N 035-18-59E
Jan 28, 2020 - 04:00 PM EST / 2020.01.28 2100 UTC
Wind: from the ENE (070 degrees) at 7 MPH (6 KT):0
Visibility: 1 mile(s):0
Sky conditions: overcast
Weather: light rain; mist
Temperature: 39 F (4 C)
Dew Point: 37 F (3 C)
Relative Humidity: 93%
Pressure (altimeter): 29.77 in. Hg (1008 hPa)
ob: UKDE 282100Z 07003MPS 1700 -RA BR OVC016 04/03 Q1008 R02R/290550 NOSIG
cycle: 21

Station Type Date Time Source
UKDE TAF 2019/12/20 16:09 UTC NOAA

TAF
AMD TAF
AMD UKDE 201606Z 2016/2124 09003MPS 0100 FZFG VV001 TXM01/2016Z TNM03/2124Z
TEMPO 2018/2021 1000 BR OVC003

Example: see airport list